Time;durP1;ratioP1;P1;durP2;ratioP2;P2;SDS_P1;SDS_P2;PMS_P1;PMS_P2;Temp;Humidity;BMP_temperature;BMP_pressure;BME280_temperature;BME280_humidity;BME280_pressure;Samples;Min_cycle;Max_cycle;Signal;HPM_P1;HPM_P2
2022/02/04 00:25:02;;;;;;;49.05;22.00;;;;;;;;;;6044626;23;20564;-84
2022/02/04 00:27:28;;;;;;;47.08;22.88;;;;;;;;;;6043536;23;20099;-84
2022/02/04 00:30:11;;;;;;;44.20;20.70;;;;;;;;;;6043365;23;20033;-85
2022/02/04 00:32:40;;;;;;;42.60;20.77;;;;;;;;;;6043345;23;20353;-85
2022/02/04 00:37:56;;;;;;;39.38;19.35;;;;;;;;;;6053085;23;20320;-84
2022/02/04 00:40:25;;;;;;;35.88;18.42;;;;;;;;;;6043268;23;20004;-84
2022/02/04 00:42:53;;;;;;;34.35;18.48;;;;;;;;;;6047960;23;20035;-84
2022/02/04 00:45:26;;;;;;;34.22;19.63;;;;;;;;;;6072106;23;20003;-84
2022/02/04 00:48:01;;;;;;;34.08;18.85;;;;;;;;;;6071866;23;20122;-84
2022/02/04 00:50:34;;;;;;;31.67;18.27;;;;;;;;;;6047606;23;20108;-85
2022/02/04 00:53:11;;;;;;;40.50;20.38;;;;;;;;;;6048050;23;20011;-85
2022/02/04 00:55:58;;;;;;;32.65;18.48;;;;;;;;;;6116909;23;20009;-85
2022/02/04 01:26:18;;;;;;;42.22;23.55;;;;;;;;;;6221298;23;20020;-85
2022/02/04 01:28:45;;;;;;;50.22;28.33;;;;;;;;;;6221883;23;20005;-86
2022/02/04 01:31:14;;;;;;;57.05;30.25;;;;;;;;;;6194979;23;20054;-86
2022/02/04 01:33:41;;;;;;;79.60;37.45;;;;;;;;;;6221558;23;20008;-85
2022/02/04 01:36:07;;;;;;;69.97;33.28;;;;;;;;;;6221739;23;20047;-86
2022/02/04 01:38:33;;;;;;;69.38;31.67;;;;;;;;;;6221480;23;19997;-85
2022/02/04 01:41:00;;;;;;;62.03;31.60;;;;;;;;;;6221185;23;20003;-85
2022/02/04 01:43:26;;;;;;;55.75;28.50;;;;;;;;;;6195016;23;20035;-86
2022/02/04 01:45:53;;;;;;;52.35;27.27;;;;;;;;;;6220471;23;20005;-85
2022/02/04 01:48:19;;;;;;;49.47;26.85;;;;;;;;;;6221123;23;20426;-85
2022/02/04 01:50:46;;;;;;;47.92;26.38;;;;;;;;;;6221254;23;20007;-85
2022/02/04 01:53:13;;;;;;;48.70;26.50;;;;;;;;;;6221738;23;20004;-85
2022/02/04 02:01:46;;;;;;;49.03;25.63;;;;;;;;;;6220637;23;20008;-86
2022/02/04 02:04:14;;;;;;;44.88;24.10;;;;;;;;;;6221257;23;19997;-85
2022/02/04 02:06:40;;;;;;;47.67;25.02;;;;;;;;;;6189508;23;20024;-86
2022/02/04 02:09:06;;;;;;;47.67;25.35;;;;;;;;;;6191324;23;20116;-86
2022/02/04 02:11:32;;;;;;;48.65;24.77;;;;;;;;;;6190639;23;20391;-86
2022/02/04 02:13:59;;;;;;;49.08;25.55;;;;;;;;;;6191328;23;20021;-86
2022/02/04 02:17:00;;;;;;;47.25;25.30;;;;;;;;;;6190621;23;20451;-86
2022/02/04 02:33:51;;;;;;;48.22;28.42;;;;;;;;;;6071703;23;20067;-86
2022/02/04 02:46:53;;;;;;;55.83;33.38;;;;;;;;;;6071513;23;20031;-86
2022/02/04 02:49:36;;;;;;;64.07;35.90;;;;;;;;;;6047474;23;20038;-85
2022/02/04 02:52:36;;;;;;;60.53;35.03;;;;;;;;;;6071318;23;20026;-85
2022/02/04 02:58:05;;;;;;;63.45;37.50;;;;;;;;;;6080737;23;20038;-85
2022/02/04 03:00:46;;;;;;;68.93;36.65;;;;;;;;;;6047192;23;20031;-85
2022/02/04 03:03:14;;;;;;;65.10;36.75;;;;;;;;;;6190732;23;20005;-85
2022/02/04 03:05:41;;;;;;;62.47;36.22;;;;;;;;;;6195874;22;20009;-85
2022/02/04 03:08:07;;;;;;;65.75;34.47;;;;;;;;;;6221161;23;20040;-86
2022/02/04 03:10:33;;;;;;;68.00;35.35;;;;;;;;;;6221130;23;20008;-85
2022/02/04 03:13:00;;;;;;;64.15;34.22;;;;;;;;;;6194298;23;20005;-86
2022/02/04 03:15:26;;;;;;;60.88;33.85;;;;;;;;;;6220809;23;20005;-86
2022/02/04 03:18:03;;;;;;;60.50;32.05;;;;;;;;;;6220886;23;20011;-86
2022/02/04 03:20:30;;;;;;;56.58;30.60;;;;;;;;;;6194065;23;19997;-86
2022/02/04 03:22:58;;;;;;;51.95;28.52;;;;;;;;;;6193870;23;20000;-86
2022/02/04 03:25:25;;;;;;;49.75;25.63;;;;;;;;;;6221169;23;20005;-86
2022/02/04 03:31:08;;;;;;;35.63;19.50;;;;;;;;;;6220826;23;20004;-86
2022/02/04 03:33:35;;;;;;;37.92;18.75;;;;;;;;;;6220410;23;20012;-86
2022/02/04 03:36:01;;;;;;;35.15;18.20;;;;;;;;;;6221395;23;20047;-85
2022/02/04 03:38:27;;;;;;;30.55;17.92;;;;;;;;;;6222635;23;20013;-86
2022/02/04 03:40:53;;;;;;;32.08;17.67;;;;;;;;;;6222576;23;20084;-86
2022/02/04 03:43:19;;;;;;;35.28;18.70;;;;;;;;;;6196104;23;20031;-86
2022/02/04 03:45:45;;;;;;;37.45;20.45;;;;;;;;;;6196145;23;20008;-86
2022/02/04 03:48:11;;;;;;;38.75;21.02;;;;;;;;;;6222523;23;20007;-86
2022/02/04 03:50:37;;;;;;;42.88;22.08;;;;;;;;;;6222676;23;20005;-85
2022/02/04 03:53:05;;;;;;;42.65;22.63;;;;;;;;;;6222333;23;20012;-85
2022/02/04 03:55:32;;;;;;;40.80;22.05;;;;;;;;;;6222263;23;20387;-85
2022/02/04 03:57:58;;;;;;;39.47;21.92;;;;;;;;;;6222396;23;20076;-85
2022/02/04 04:00:24;;;;;;;37.92;22.10;;;;;;;;;;6222373;23;20008;-86
2022/02/04 04:02:50;;;;;;;38.70;22.90;;;;;;;;;;6196001;23;20005;-85
2022/02/04 04:05:16;;;;;;;39.20;22.58;;;;;;;;;;6222096;23;20031;-86
2022/02/04 04:07:48;;;;;;;41.88;22.67;;;;;;;;;;6195101;23;20013;-87
2022/02/04 04:10:24;;;;;;;41.88;23.48;;;;;;;;;;6222339;23;20004;-85
2022/02/04 04:16:14;;;;;;;46.10;24.48;;;;;;;;;;6221969;23;20028;-85
2022/02/04 04:18:40;;;;;;;43.88;24.45;;;;;;;;;;6221783;23;20003;-86
2022/02/04 04:21:06;;;;;;;44.92;24.55;;;;;;;;;;6222118;23;20410;-86
2022/02/04 04:23:32;;;;;;;44.70;25.13;;;;;;;;;;6221919;23;20083;-86
2022/02/04 04:25:58;;;;;;;48.08;27.30;;;;;;;;;;6221986;23;20355;-86
2022/02/04 04:28:24;;;;;;;45.38;25.38;;;;;;;;;;6221628;23;20004;-86
2022/02/04 04:30:50;;;;;;;51.50;28.17;;;;;;;;;;6195450;23;20368;-86
2022/02/04 04:33:16;;;;;;;45.88;26.92;;;;;;;;;;6222501;23;20005;-86
2022/02/04 04:35:42;;;;;;;47.85;27.23;;;;;;;;;;6195700;23;20015;-86
2022/02/04 04:38:19;;;;;;;50.30;27.92;;;;;;;;;;6221661;23;20028;-86
2022/02/04 05:28:34;;;;;;;70.28;35.53;;;;;;;;;;6221163;23;20016;-86
2022/02/04 05:31:00;;;;;;;68.85;35.05;;;;;;;;;;6221376;23;20012;-86
2022/02/04 05:33:27;;;;;;;63.28;34.38;;;;;;;;;;6221090;23;20422;-86
2022/02/04 05:35:53;;;;;;;66.05;34.97;;;;;;;;;;6194532;23;20009;-86
2022/02/04 05:38:20;;;;;;;70.70;36.33;;;;;;;;;;6221001;23;20007;-86
2022/02/04 05:40:49;;;;;;;74.72;37.63;;;;;;;;;;6221661;23;20000;-86
2022/02/04 05:43:54;;;;;;;79.10;40.17;;;;;;;;;;6221070;23;19997;-86
2022/02/04 05:46:24;;;;;;;73.78;38.45;;;;;;;;;;6220868;23;20084;-87
2022/02/04 05:48:53;;;;;;;72.80;38.45;;;;;;;;;;6193940;23;20308;-86
2022/02/04 05:54:22;;;;;;;68.45;37.88;;;;;;;;;;6072937;23;20045;-86
2022/02/04 06:02:11;;;;;;;63.55;36.70;;;;;;;;;;6080969;23;20038;-86
2022/02/04 06:22:50;;;;;;;64.55;36.53;;;;;;;;;;6071637;23;20270;-86
2022/02/04 06:25:16;;;;;;;66.38;36.60;;;;;;;;;;6071413;23;20047;-86
2022/02/04 06:27:42;;;;;;;67.32;35.88;;;;;;;;;;6071293;23;20022;-85
2022/02/04 06:30:09;;;;;;;64.10;33.17;;;;;;;;;;6083401;23;20011;-86
2022/02/04 06:32:35;;;;;;;63.63;33.63;;;;;;;;;;6190616;23;20009;-86
2022/02/04 06:35:02;;;;;;;59.70;32.58;;;;;;;;;;6189475;23;20315;-86
2022/02/04 06:37:29;;;;;;;54.40;31.17;;;;;;;;;;6189572;23;20040;-86
2022/02/04 06:39:55;;;;;;;54.92;31.55;;;;;;;;;;6189872;23;20001;-86
2022/02/04 06:45:25;;;;;;;62.15;34.08;;;;;;;;;;6190742;23;20052;-86
2022/02/04 06:47:51;;;;;;;63.95;34.42;;;;;;;;;;6190515;23;20005;-87
2022/02/04 06:50:17;;;;;;;60.63;31.15;;;;;;;;;;6190561;23;20048;-86
2022/02/04 06:52:44;;;;;;;55.22;30.00;;;;;;;;;;6190613;23;20009;-86
2022/02/04 06:55:11;;;;;;;61.75;30.45;;;;;;;;;;6190999;23;20008;-86
2022/02/04 06:57:37;;;;;;;58.80;29.80;;;;;;;;;;6190890;23;20257;-86
2022/02/04 07:00:04;;;;;;;52.53;27.85;;;;;;;;;;6191414;23;20004;-86
2022/02/04 07:02:30;;;;;;;51.47;27.98;;;;;;;;;;6165079;23;20012;-86
2022/02/04 07:04:56;;;;;;;45.92;27.38;;;;;;;;;;6190682;23;20005;-86
2022/02/04 07:07:23;;;;;;;46.28;26.65;;;;;;;;;;6194288;23;20135;-86
2022/02/04 07:09:55;;;;;;;44.95;26.20;;;;;;;;;;6221546;23;20020;-86
2022/02/04 07:12:50;;;;;;;47.55;26.33;;;;;;;;;;6196451;23;20008;-86
2022/02/04 07:18:02;;;;;;;55.65;27.70;;;;;;;;;;6232801;23;20435;-86
2022/02/04 07:20:28;;;;;;;53.08;26.63;;;;;;;;;;6222541;23;20009;-85
2022/02/04 07:22:55;;;;;;;52.75;27.13;;;;;;;;;;6222999;23;20001;-86
2022/02/04 07:25:21;;;;;;;51.97;27.02;;;;;;;;;;6222826;23;20275;-86
2022/02/04 07:31:14;;;;;;;48.08;25.33;;;;;;;;;;6222530;23;20003;-87
2022/02/04 07:33:48;;;;;;;48.08;26.75;;;;;;;;;;6222932;23;20000;-86
2022/02/04 07:41:45;;;;;;;42.88;23.85;;;;;;;;;;6222409;23;20016;-86
2022/02/04 07:44:12;;;;;;;45.63;21.50;;;;;;;;;;6196157;23;20031;-87
2022/02/04 07:46:38;;;;;;;42.35;22.58;;;;;;;;;;6222343;23;20012;-87
2022/02/04 07:49:04;;;;;;;38.08;22.10;;;;;;;;;;6222210;23;20005;-87
2022/02/04 07:51:30;;;;;;;39.88;20.88;;;;;;;;;;6221927;23;19997;-86
2022/02/04 07:53:56;;;;;;;41.38;22.40;;;;;;;;;;6222094;23;20005;-86
2022/02/04 07:56:23;;;;;;;62.33;31.00;;;;;;;;;;6222475;23;20004;-87
2022/02/04 07:59:05;;;;;;;59.08;29.65;;;;;;;;;;6222111;23;19997;-87
2022/02/04 08:01:31;;;;;;;62.35;32.67;;;;;;;;;;6195912;23;20083;-87
2022/02/04 08:06:30;;;;;;;57.25;29.80;;;;;;;;;;6223063;23;20025;-87
2022/02/04 08:27:43;;;;;;;71.70;36.75;;;;;;;;;;5987259;23;20298;-89
2022/02/04 08:38:35;;;;;;;66.65;31.02;;;;;;;;;;5960047;24;20057;-87
2022/02/04 08:52:08;;;;;;;62.08;30.65;;;;;;;;;;5943679;24;20095;-89
2022/02/04 08:54:48;;;;;;;45.70;25.45;;;;;;;;;;5959009;24;20014;-89
2022/02/04 09:05:03;;;;;;;41.65;20.95;;;;;;;;;;6021620;23;20019;-87
2022/02/04 09:07:37;;;;;;;42.88;23.15;;;;;;;;;;6015030;23;20373;-88
2022/02/04 09:10:12;;;;;;;48.38;25.95;;;;;;;;;;6056834;23;20011;-87
2022/02/04 09:20:58;;;;;;;53.90;26.67;;;;;;;;;;6174371;23;20091;-87
2022/02/04 09:23:25;;;;;;;47.03;25.10;;;;;;;;;;6221659;23;20476;-88
2022/02/04 09:25:51;;;;;;;45.35;23.95;;;;;;;;;;6221699;23;20043;-87
2022/02/04 09:28:17;;;;;;;48.28;25.33;;;;;;;;;;6195032;23;20004;-88
2022/02/04 09:30:44;;;;;;;51.67;26.50;;;;;;;;;;6221463;23;20005;-88
2022/02/04 09:33:12;;;;;;;57.17;26.70;;;;;;;;;;6221449;23;20007;-87
2022/02/04 09:35:38;;;;;;;40.67;21.70;;;;;;;;;;6221385;23;20004;-88
2022/02/04 09:38:05;;;;;;;34.20;19.38;;;;;;;;;;6221271;23;20036;-87
2022/02/04 09:40:31;;;;;;;41.53;21.73;;;;;;;;;;6194874;23;20001;-88
2022/02/04 09:42:57;;;;;;;45.70;22.85;;;;;;;;;;6221426;23;20008;-88
2022/02/04 09:45:26;;;;;;;37.65;19.80;;;;;;;;;;6195273;23;20011;-88
2022/02/04 09:48:00;;;;;;;37.70;20.40;;;;;;;;;;6221491;23;20083;-87
2022/02/04 09:50:28;;;;;;;34.15;18.23;;;;;;;;;;6221099;23;20008;-87
2022/02/04 10:17:12;;;;;;;41.08;22.15;;;;;;;;;;6221527;23;20152;-87
2022/02/04 10:22:23;;;;;;;33.22;17.80;;;;;;;;;;6231361;23;20036;-87
2022/02/04 10:24:59;;;;;;;44.53;22.30;;;;;;;;;;6194079;23;20268;-85
2022/02/04 10:27:26;;;;;;;51.47;23.85;;;;;;;;;;6220149;23;20024;-85
2022/02/04 10:29:55;;;;;;;54.58;23.40;;;;;;;;;;6194495;23;20048;-85
2022/02/04 10:33:00;;;;;;;45.60;20.48;;;;;;;;;;6220763;23;20000;-85
2022/02/04 10:35:30;;;;;;;51.42;25.40;;;;;;;;;;6099852;23;20057;-85
2022/02/04 10:38:24;;;;;;;31.85;17.98;;;;;;;;;;6074823;23;20054;-85
2022/02/04 11:04:29;;;;;;;78.20;29.40;;;;;;;;;;6109329;23;20089;-85
2022/02/04 11:09:56;;;;;;;58.05;27.25;;;;;;;;;;6219870;23;20015;-84
2022/02/04 11:43:47;;;;;;;25.42;15.52;;;;;;;;;;6128939;23;20032;-84
2022/02/04 11:52:06;;;;;;;32.80;18.35;;;;;;;;;;6128868;23;20294;-84
2022/02/04 11:54:36;;;;;;;31.08;16.90;;;;;;;;;;6103624;23;20040;-84
2022/02/04 11:57:05;;;;;;;35.30;17.80;;;;;;;;;;6129719;23;20419;-83
2022/02/04 11:59:36;;;;;;;22.67;13.35;;;;;;;;;;6130544;23;20006;-83
2022/02/04 12:02:22;;;;;;;27.77;13.48;;;;;;;;;;6130305;23;20008;-84
2022/02/04 12:04:48;;;;;;;29.52;13.95;;;;;;;;;;6130141;23;20048;-83
2022/02/04 12:07:35;;;;;;;33.00;15.48;;;;;;;;;;6130292;23;20024;-84
2022/02/04 12:10:01;;;;;;;21.42;12.63;;;;;;;;;;5963519;24;20016;-84
2022/02/04 12:12:46;;;;;;;26.67;14.02;;;;;;;;;;6029080;23;20007;-84
2022/02/04 12:15:31;;;;;;;31.50;14.93;;;;;;;;;;6019422;23;20379;-84
2022/02/04 12:17:58;;;;;;;24.45;12.68;;;;;;;;;;6019290;23;20051;-84
2022/02/04 12:20:43;;;;;;;23.77;13.10;;;;;;;;;;6043261;23;20078;-84
2022/02/04 12:23:09;;;;;;;29.10;14.20;;;;;;;;;;6043355;23;20012;-83
2022/02/04 12:26:07;;;;;;;29.67;14.10;;;;;;;;;;6043307;23;20018;-84
2022/02/04 12:28:52;;;;;;;25.48;12.93;;;;;;;;;;5958448;24;20041;-84
2022/02/04 12:31:25;;;;;;;28.27;13.63;;;;;;;;;;5958991;24;20015;-83
2022/02/04 12:33:55;;;;;;;29.40;13.50;;;;;;;;;;5958719;24;20008;-83
2022/02/04 12:36:21;;;;;;;25.13;12.48;;;;;;;;;;5958451;24;20048;-83
2022/02/04 12:38:48;;;;;;;24.30;12.05;;;;;;;;;;5958737;24;20012;-83
2022/02/04 12:41:23;;;;;;;26.65;14.30;;;;;;;;;;5958573;24;20092;-84
2022/02/04 12:43:50;;;;;;;29.98;13.13;;;;;;;;;;5958325;24;20004;-83
2022/02/04 12:46:17;;;;;;;34.03;14.82;;;;;;;;;;5972255;23;20091;-83
2022/02/04 12:48:54;;;;;;;26.27;13.68;;;;;;;;;;6043055;23;20028;-83
2022/02/04 12:51:32;;;;;;;26.70;12.32;;;;;;;;;;6042964;23;20007;-84
2022/02/04 12:53:58;;;;;;;24.67;13.30;;;;;;;;;;6043146;23;20023;-83
2022/02/04 12:56:40;;;;;;;32.05;12.93;;;;;;;;;;6042832;23;20011;-83
2022/02/04 12:59:25;;;;;;;29.07;11.50;;;;;;;;;;6042914;23;20027;-83
2022/02/04 13:02:17;;;;;;;28.92;12.63;;;;;;;;;;6042910;23;20235;-83
2022/02/04 13:10:24;;;;;;;30.05;14.10;;;;;;;;;;6160515;23;20024;-83
2022/02/04 13:13:00;;;;;;;29.80;15.27;;;;;;;;;;6134154;23;20005;-83
2022/02/04 13:15:29;;;;;;;25.15;12.82;;;;;;;;;;6158916;23;20017;-83
2022/02/04 13:17:57;;;;;;;19.52;11.77;;;;;;;;;;6158959;23;20001;-83
2022/02/04 13:20:24;;;;;;;26.38;12.57;;;;;;;;;;6134306;23;20053;-83
2022/02/04 13:23:00;;;;;;;31.35;12.38;;;;;;;;;;6134200;23;20027;-83
2022/02/04 13:25:33;;;;;;;32.05;14.45;;;;;;;;;;6159047;23;20032;-83
2022/02/04 13:28:02;;;;;;;27.92;12.38;;;;;;;;;;6134277;23;20032;-83
2022/02/04 13:30:30;;;;;;;45.03;23.30;;;;;;;;;;6134029;23;20005;-83
2022/02/04 13:32:56;;;;;;;28.27;18.23;;;;;;;;;;6159021;23;20396;-83
2022/02/04 13:35:27;;;;;;;28.83;12.60;;;;;;;;;;6133965;23;20037;-83
2022/02/04 13:37:56;;;;;;;29.75;13.43;;;;;;;;;;6158658;23;20017;-83
2022/02/04 13:40:32;;;;;;;28.83;14.65;;;;;;;;;;6134044;23;20002;-83
2022/02/04 13:43:18;;;;;;;26.00;13.77;;;;;;;;;;6158660;23;20001;-83
2022/02/04 13:45:55;;;;;;;33.33;17.38;;;;;;;;;;6158744;23;20005;-83
2022/02/04 13:48:35;;;;;;;36.50;16.70;;;;;;;;;;6191520;23;20013;-83
2022/02/04 13:51:16;;;;;;;30.15;16.05;;;;;;;;;;6220801;23;20004;-83
2022/02/04 13:54:01;;;;;;;;;;;;;;;;;;6221533;23;20005;-83
2022/02/04 13:56:35;;;;;;;23.52;13.75;;;;;;;;;;6220472;23;19903;-83
2022/02/04 13:59:23;;;;;;;31.60;15.05;;;;;;;;;;6220593;23;20080;-83
2022/02/04 14:01:57;;;;;;;35.03;18.45;;;;;;;;;;6220931;23;20008;-83
2022/02/04 14:04:23;;;;;;;26.00;15.35;;;;;;;;;;6220763;23;19996;-83
2022/02/04 14:07:05;;;;;;;37.10;19.23;;;;;;;;;;6220137;23;20017;-83
2022/02/04 14:09:36;;;;;;;44.03;22.00;;;;;;;;;;6194301;23;20107;-83
2022/02/04 14:12:13;;;;;;;26.15;14.65;;;;;;;;;;6194308;23;20036;-83
2022/02/04 14:14:40;;;;;;;38.80;20.80;;;;;;;;;;6220508;23;20004;-84
2022/02/04 14:17:06;;;;;;;31.13;17.08;;;;;;;;;;6220441;23;20008;-82
2022/02/04 14:19:32;;;;;;;41.13;20.85;;;;;;;;;;6220408;23;20007;-83
2022/02/04 14:21:59;;;;;;;69.47;27.48;;;;;;;;;;6220063;23;19997;-83
2022/02/04 14:24:26;;;;;;;37.42;19.50;;;;;;;;;;6194105;23;20382;-83
2022/02/04 14:26:53;;;;;;;36.20;20.98;;;;;;;;;;6194211;23;20039;-84
2022/02/04 14:31:54;;;;;;;37.67;19.77;;;;;;;;;;6220901;23;20009;-84
2022/02/04 14:34:48;;;;;;;38.53;18.80;;;;;;;;;;6220380;23;20043;-83
2022/02/04 14:54:14;;;;;;;53.75;25.35;;;;;;;;;;6158466;23;20396;-83
2022/02/04 15:00:07;;;;;;;53.22;26.33;;;;;;;;;;6158311;23;20036;-81
2022/02/04 15:02:12;;;;;;;56.00;26.92;;;;;;;;;;6156354;23;20389;-83
2022/02/04 15:04:46;;;;;;;53.75;27.20;;;;;;;;;;6158093;23;20010;-83
2022/02/04 15:07:13;;;;;;;58.88;29.27;;;;;;;;;;6158118;23;20017;-83
2022/02/04 15:09:48;;;;;;;56.40;30.23;;;;;;;;;;6158401;23;20273;-83
2022/02/04 15:12:15;;;;;;;63.53;34.65;;;;;;;;;;6158148;23;20002;-83
2022/02/04 15:14:41;;;;;;;69.72;35.08;;;;;;;;;;6158147;23;20016;-83
2022/02/04 15:17:07;;;;;;;66.05;34.42;;;;;;;;;;6194239;23;20008;-83
2022/02/04 15:19:34;;;;;;;62.70;34.20;;;;;;;;;;6220487;23;20008;-83
2022/02/04 15:22:03;;;;;;;64.25;34.50;;;;;;;;;;6220516;23;20004;-83
2022/02/04 15:24:30;;;;;;;62.80;35.28;;;;;;;;;;6220210;23;20324;-83
2022/02/04 15:26:56;;;;;;;65.57;36.70;;;;;;;;;;6193326;23;20012;-83
2022/02/04 15:29:22;;;;;;;67.05;36.67;;;;;;;;;;6219939;23;20047;-83
2022/02/04 15:31:57;;;;;;;59.72;34.22;;;;;;;;;;6221156;23;20028;-83
2022/02/04 15:34:24;;;;;;;65.75;37.05;;;;;;;;;;6195400;23;20027;-83
2022/02/04 15:36:51;;;;;;;83.18;39.50;;;;;;;;;;6221690;23;20055;-83
2022/02/04 15:39:18;;;;;;;73.63;38.90;;;;;;;;;;6222001;23;19997;-83
2022/02/04 15:41:45;;;;;;;79.82;40.13;;;;;;;;;;6222161;23;20067;-82
2022/02/04 15:44:36;;;;;;;104.82;46.88;;;;;;;;;;6195439;23;20005;-83
2022/02/04 16:05:43;;;;;;;180.88;61.90;;;;;;;;;;6162883;23;20049;-83
2022/02/04 16:08:12;;;;;;;174.38;59.55;;;;;;;;;;6159422;23;20380;-82
2022/02/04 16:10:57;;;;;;;203.68;62.97;;;;;;;;;;6134157;23;20017;-83
2022/02/04 16:13:33;;;;;;;176.93;58.03;;;;;;;;;;6134546;23;20096;-83
2022/02/04 16:18:35;;;;;;;123.82;48.80;;;;;;;;;;6163058;23;20005;-83
2022/02/04 16:21:21;;;;;;;124.60;48.70;;;;;;;;;;6159703;23;20045;-83
2022/02/04 16:28:48;;;;;;;77.28;36.75;;;;;;;;;;6161943;23;20051;-82
2022/02/04 16:31:17;;;;;;;89.45;41.53;;;;;;;;;;6159537;23;20001;-82
2022/02/04 16:33:43;;;;;;;107.85;45.22;;;;;;;;;;6158861;23;20009;-82
2022/02/04 16:36:15;;;;;;;84.90;44.50;;;;;;;;;;6159201;23;20013;-83
2022/02/04 16:38:44;;;;;;;76.87;45.23;;;;;;;;;;6219670;23;20009;-83
2022/02/04 16:41:12;;;;;;;78.95;45.20;;;;;;;;;;6221498;23;20202;-83
2022/02/04 16:43:39;;;;;;;95.13;49.00;;;;;;;;;;6220628;23;20020;-83
2022/02/04 16:46:06;;;;;;;170.20;96.35;;;;;;;;;;6221643;23;20036;-83
2022/02/04 16:48:36;;;;;;;275.40;152.45;;;;;;;;;;6221715;23;20004;-83
2022/02/04 16:51:04;;;;;;;150.70;86.45;;;;;;;;;;6221700;23;20372;-83
2022/02/04 16:53:31;;;;;;;112.53;58.10;;;;;;;;;;6195466;23;20009;-83
2022/02/04 16:55:57;;;;;;;110.90;52.63;;;;;;;;;;6221598;23;20005;-83
2022/02/04 16:58:23;;;;;;;112.65;59.42;;;;;;;;;;6221430;23;20003;-83
2022/02/04 17:00:49;;;;;;;109.28;59.95;;;;;;;;;;6220836;23;20003;-84
2022/02/04 17:03:15;;;;;;;81.20;44.08;;;;;;;;;;6221607;23;20000;-83
2022/02/04 17:08:20;;;;;;;84.30;43.28;;;;;;;;;;6231670;23;20016;-83
2022/02/04 17:10:50;;;;;;;161.02;68.65;;;;;;;;;;6195391;23;20005;-83
2022/02/04 17:13:18;;;;;;;377.05;112.03;;;;;;;;;;6221212;23;20004;-84
2022/02/04 17:15:44;;;;;;;414.02;120.70;;;;;;;;;;6194614;23;20005;-83
2022/02/04 17:18:11;;;;;;;515.88;153.40;;;;;;;;;;6220884;23;19996;-83
2022/02/04 17:20:38;;;;;;;379.48;110.50;;;;;;;;;;6221386;23;20008;-83
2022/02/04 17:23:08;;;;;;;288.42;105.78;;;;;;;;;;6221470;23;20301;-84
2022/02/04 17:25:35;;;;;;;279.65;110.38;;;;;;;;;;6221373;23;20120;-83
2022/02/04 17:28:01;;;;;;;422.55;181.75;;;;;;;;;;6194611;23;20005;-83
2022/02/04 17:30:28;;;;;;;247.55;104.90;;;;;;;;;;6221277;23;20323;-83
2022/02/04 17:32:54;;;;;;;199.25;82.78;;;;;;;;;;6194740;23;20031;-83
2022/02/04 17:35:21;;;;;;;160.82;74.05;;;;;;;;;;6221160;23;20107;-83
2022/02/04 17:37:51;;;;;;;153.70;72.85;;;;;;;;;;6220843;23;20363;-83
2022/02/04 17:40:18;;;;;;;129.68;65.15;;;;;;;;;;6220807;23;20031;-83
2022/02/04 17:42:46;;;;;;;140.10;66.30;;;;;;;;;;6220796;23;20264;-84
2022/02/04 17:45:17;;;;;;;107.78;53.40;;;;;;;;;;6194371;23;20004;-84
2022/02/04 17:47:50;;;;;;;134.85;62.00;;;;;;;;;;6194415;23;20012;-83
2022/02/04 17:50:22;;;;;;;107.45;52.25;;;;;;;;;;6221171;23;20027;-83
2022/02/04 17:52:54;;;;;;;109.15;52.20;;;;;;;;;;6221432;23;20011;-83
2022/02/04 17:55:27;;;;;;;115.25;53.85;;;;;;;;;;6220474;23;20008;-83
2022/02/04 17:58:09;;;;;;;108.13;52.70;;;;;;;;;;6220568;23;19996;-83
2022/02/04 18:08:28;;;;;;;110.60;52.33;;;;;;;;;;6220924;23;20012;-84
2022/02/04 18:10:54;;;;;;;262.73;121.80;;;;;;;;;;6220246;23;20264;-84
2022/02/04 18:13:20;;;;;;;183.25;95.80;;;;;;;;;;6220334;23;20360;-83
2022/02/04 18:15:46;;;;;;;294.95;139.93;;;;;;;;;;6220266;23;20030;-84
2022/02/04 18:18:14;;;;;;;181.00;88.13;;;;;;;;;;6220341;23;20348;-84
2022/02/04 18:20:41;;;;;;;150.05;78.18;;;;;;;;;;6220544;23;20024;-83
2022/02/04 18:23:07;;;;;;;163.27;85.60;;;;;;;;;;6220822;23;20436;-83
2022/02/04 18:25:33;;;;;;;272.95;116.03;;;;;;;;;;6220494;23;20363;-84
2022/02/04 18:28:01;;;;;;;169.90;76.75;;;;;;;;;;6220531;23;20402;-83
2022/02/04 18:30:35;;;;;;;156.90;74.40;;;;;;;;;;6220268;23;20031;-84
2022/02/04 18:33:01;;;;;;;151.05;69.72;;;;;;;;;;6221115;23;20005;-84
2022/02/04 18:35:27;;;;;;;130.93;64.60;;;;;;;;;;6220687;23;20009;-83
2022/02/04 18:38:12;;;;;;;119.63;59.85;;;;;;;;;;6194077;23;20015;-84
2022/02/04 18:46:07;;;;;;;119.68;56.25;;;;;;;;;;6220372;23;20019;-84
2022/02/04 18:48:53;;;;;;;;;;;;;;;;;;6220682;23;20034;-83
2022/02/04 18:53:57;;;;;;;132.07;64.57;;;;;;;;;;6230459;23;20055;-84
2022/02/04 18:56:34;;;;;;;128.18;62.00;;;;;;;;;;6220444;23;20001;-84
2022/02/04 18:59:00;;;;;;;113.22;55.80;;;;;;;;;;6193930;23;20012;-83
2022/02/04 19:01:28;;;;;;;123.00;57.38;;;;;;;;;;6220814;23;20275;-84
2022/02/04 19:04:00;;;;;;;107.15;50.90;;;;;;;;;;6220388;23;20331;-83
2022/02/04 19:06:35;;;;;;;96.53;47.78;;;;;;;;;;6221337;23;20013;-84
2022/02/04 19:09:04;;;;;;;92.32;46.97;;;;;;;;;;6222981;23;20009;-84
2022/02/04 19:11:41;;;;;;;113.57;52.97;;;;;;;;;;6222285;23;20425;-83
2022/02/04 19:14:13;;;;;;;102.82;54.28;;;;;;;;;;6222546;23;20313;-83
2022/02/04 19:19:13;;;;;;;594.15;139.77;;;;;;;;;;6232507;23;20012;-84
2022/02/04 19:21:46;;;;;;;989.28;235.65;;;;;;;;;;6222224;23;20024;-84
2022/02/04 19:24:13;;;;;;;856.38;215.70;;;;;;;;;;6222750;23;20000;-84
2022/02/04 19:26:39;;;;;;;441.40;119.15;;;;;;;;;;6221824;23;20012;-84
2022/02/04 19:29:06;;;;;;;339.83;104.30;;;;;;;;;;6196478;23;20076;-84
2022/02/04 19:31:39;;;;;;;471.45;151.32;;;;;;;;;;6222020;23;20079;-84
2022/02/04 19:34:06;;;;;;;628.03;228.00;;;;;;;;;;6222763;23;20012;-84
2022/02/04 19:36:32;;;;;;;661.00;258.33;;;;;;;;;;6222544;23;20004;-83
2022/02/04 19:38:58;;;;;;;309.63;119.13;;;;;;;;;;6195750;23;20376;-84
2022/02/04 19:41:29;;;;;;;350.38;125.38;;;;;;;;;;6222070;23;20042;-84
2022/02/04 19:43:57;;;;;;;685.88;258.83;;;;;;;;;;6195571;23;20012;-84
2022/02/04 19:46:28;;;;;;;490.42;204.95;;;;;;;;;;6222379;23;20005;-84
2022/02/04 19:48:57;;;;;;;321.58;135.13;;;;;;;;;;6222046;23;20024;-84
2022/02/04 19:51:37;;;;;;;197.60;89.50;;;;;;;;;;6221980;23;20005;-84
2022/02/04 19:54:37;;;;;;;201.85;92.63;;;;;;;;;;6222488;23;20491;-84
2022/02/04 20:14:32;;;;;;;117.68;57.03;;;;;;;;;;6221847;23;20308;-84
2022/02/04 20:24:49;;;;;;;150.32;80.22;;;;;;;;;;6221830;23;20027;-84
2022/02/04 20:27:15;;;;;;;154.30;84.00;;;;;;;;;;6221851;23;20303;-84
2022/02/04 20:29:41;;;;;;;137.05;75.07;;;;;;;;;;6221802;23;20008;-84
2022/02/04 20:32:07;;;;;;;133.07;70.72;;;;;;;;;;6195019;23;20011;-83
2022/02/04 20:34:34;;;;;;;128.48;70.53;;;;;;;;;;6195188;23;20051;-84
2022/02/04 20:37:00;;;;;;;131.00;68.63;;;;;;;;;;6220403;23;20028;-85
2022/02/04 20:39:44;;;;;;;127.35;67.85;;;;;;;;;;6221700;23;20004;-85
2022/02/04 20:42:10;;;;;;;134.98;77.80;;;;;;;;;;6221760;23;20059;-85
2022/02/04 20:44:36;;;;;;;125.95;67.88;;;;;;;;;;6221987;23;20071;-86
2022/02/04 20:47:03;;;;;;;127.05;63.55;;;;;;;;;;6221534;23;20072;-85
2022/02/04 20:49:29;;;;;;;135.23;65.47;;;;;;;;;;6222380;23;20011;-85
2022/02/04 20:51:55;;;;;;;118.68;60.88;;;;;;;;;;6221925;23;20008;-85
2022/02/04 20:54:21;;;;;;;117.22;58.80;;;;;;;;;;6221421;23;20005;-85
2022/02/04 20:56:47;;;;;;;101.82;56.20;;;;;;;;;;6194956;23;20005;-84
2022/02/04 20:59:13;;;;;;;97.90;51.55;;;;;;;;;;6220934;23;20060;-85
2022/02/04 21:01:39;;;;;;;104.75;52.08;;;;;;;;;;6221462;23;20001;-85
2022/02/04 21:04:09;;;;;;;106.50;53.10;;;;;;;;;;6221436;23;20375;-85
2022/02/04 21:15:17;;;;;;;163.15;73.38;;;;;;;;;;6159448;23;20395;-87
2022/02/04 21:17:46;;;;;;;188.52;82.78;;;;;;;;;;6158150;23;20007;-86
2022/02/04 21:20:16;;;;;;;175.90;75.78;;;;;;;;;;6159703;23;20040;-86
2022/02/04 21:22:42;;;;;;;153.80;68.47;;;;;;;;;;6159345;23;19998;-86
2022/02/04 21:25:09;;;;;;;125.40;57.13;;;;;;;;;;6159341;23;20008;-86
2022/02/04 21:27:37;;;;;;;103.97;50.03;;;;;;;;;;6135039;23;20456;-86
2022/02/04 21:30:05;;;;;;;165.27;81.72;;;;;;;;;;6134621;23;20427;-86
2022/02/04 21:32:32;;;;;;;131.73;62.00;;;;;;;;;;6158910;23;20002;-85
2022/02/04 21:37:42;;;;;;;104.07;52.83;;;;;;;;;;6159609;23;20016;-85
2022/02/04 21:40:10;;;;;;;117.28;62.80;;;;;;;;;;6159178;23;20387;-85
2022/02/04 21:42:36;;;;;;;114.45;65.13;;;;;;;;;;6165620;23;20048;-86
2022/02/04 21:45:05;;;;;;;127.78;65.72;;;;;;;;;;6221662;23;20047;-85
2022/02/04 21:47:36;;;;;;;185.00;93.57;;;;;;;;;;6221207;23;20008;-86
2022/02/04 21:50:04;;;;;;;160.18;82.82;;;;;;;;;;6221685;23;20098;-86
2022/02/04 21:52:30;;;;;;;143.55;78.20;;;;;;;;;;6221150;23;20004;-86
2022/02/04 21:54:56;;;;;;;152.07;82.93;;;;;;;;;;6221057;23;20003;-86